Time;durP1;ratioP1;P1;durP2;ratioP2;P2;SDS_P1;SDS_P2;PMS_P1;PMS_P2;Temp;Humidity;BMP_temperature;BMP_pressure;BME280_temperature;BME280_humidity;BME280_pressure;Samples;Min_cycle;Max_cycle;Signal;HPM_P1;HPM_P2
2023/01/27 00:00:51;;;;;;;0.30;0.30;;;;;;;18.09;40.59;101875.56;5093398;28;20060;-46
2023/01/27 00:03:17;;;;;;;0.20;0.20;;;;;;;18.10;40.45;101877.25;5111905;28;20043;-46
2023/01/27 00:05:44;;;;;;;0.40;0.40;;;;;;;18.08;40.37;101871.16;5093370;28;20047;-47
2023/01/27 00:08:09;;;;;;;0.40;0.40;;;;;;;18.08;40.52;101874.75;5093513;28;20051;-47
2023/01/27 00:10:35;;;;;;;0.30;0.30;;;;;;;18.09;40.66;101878.31;5112065;28;20460;-46
2023/01/27 00:13:32;;;;;;;0.35;0.35;;;;;;;18.08;40.54;101877.50;5111533;27;20082;-45
2023/01/27 00:15:46;;;;;;;0.30;0.30;;;;;;;18.07;40.63;101873.06;5099028;28;20396;-46
2023/01/27 00:18:12;;;;;;;0.30;0.30;;;;;;;18.08;40.32;101873.91;5132155;28;20081;-45
2023/01/27 00:26:14;;;;;;;0.30;0.30;;;;;;;18.09;40.68;101883.84;5096017;28;20047;-46
2023/01/27 00:28:41;;;;;;;0.30;0.30;;;;;;;18.08;40.54;101873.91;5076285;28;20047;-45
2023/01/27 00:33:56;;;;;;;0.30;0.30;;;;;;;18.06;40.67;101871.41;5068400;28;20049;-45
2023/01/27 00:36:22;;;;;;;0.30;0.30;;;;;;;18.07;40.52;101878.59;5111373;28;20502;-46
2023/01/27 00:38:47;;;;;;;0.30;0.30;;;;;;;18.07;40.55;101877.75;5111438;28;20047;-46
2023/01/27 00:41:14;;;;;;;0.40;0.40;;;;;;;18.07;40.64;101884.09;5111432;28;20044;-46
2023/01/27 00:43:40;;;;;;;0.40;0.40;;;;;;;18.07;40.44;101883.28;5111369;28;20039;-46
2023/01/27 00:46:06;;;;;;;0.30;0.30;;;;;;;18.07;40.55;101881.34;5101055;27;20039;-46
2023/01/27 00:48:32;;;;;;;0.30;0.30;;;;;;;18.07;40.53;101880.50;5096124;28;20051;-46
2023/01/27 00:50:58;;;;;;;0.30;0.30;;;;;;;18.07;40.69;101892.38;5113236;28;20055;-46
2023/01/27 00:53:24;;;;;;;0.30;0.30;;;;;;;18.05;40.77;101884.38;5131170;27;20063;-45
2023/01/27 00:55:49;;;;;;;0.30;0.30;;;;;;;18.06;40.58;101890.72;5110167;28;20039;-47
2023/01/27 00:58:15;;;;;;;0.30;0.30;;;;;;;18.07;40.61;101889.63;5131455;28;20062;-46
2023/01/27 01:00:41;;;;;;;0.40;0.40;;;;;;;18.07;40.78;101891.53;5131101;28;20055;-46
2023/01/27 01:03:06;;;;;;;0.30;0.30;;;;;;;18.07;40.68;101897.88;5131418;28;20146;-45
2023/01/27 01:05:32;;;;;;;0.30;0.30;;;;;;;18.05;40.51;101900.91;5131425;28;20051;-46
2023/01/27 01:07:58;;;;;;;0.40;0.40;;;;;;;18.07;40.72;101891.53;5131419;28;20051;-46
2023/01/27 01:10:23;;;;;;;0.40;0.40;;;;;;;18.06;40.53;101890.72;5131486;28;20051;-44
2023/01/27 01:12:49;;;;;;;0.30;0.30;;;;;;;18.06;40.61;101901.72;5138744;27;20401;-46
2023/01/27 01:15:15;;;;;;;0.40;0.40;;;;;;;18.05;40.65;101903.66;5152161;27;20039;-46
2023/01/27 01:17:40;;;;;;;0.40;0.40;;;;;;;18.05;40.67;101898.16;5113843;27;20482;-46
2023/01/27 01:20:07;;;;;;;0.40;0.40;;;;;;;18.05;40.54;101898.16;5110635;28;20624;-46
2023/01/27 01:22:33;;;;;;;0.40;0.40;;;;;;;18.04;40.73;101901.97;5110677;28;20091;-46
2023/01/27 01:24:59;;;;;;;0.40;0.40;;;;;;;18.05;40.65;101905.56;5110577;28;20123;-46
2023/01/27 01:27:25;;;;;;;0.30;0.30;;;;;;;18.05;40.71;101916.59;5109744;28;20040;-45
2023/01/27 01:29:50;;;;;;;0.30;0.30;;;;;;;18.04;40.67;101896.44;5110230;28;20441;-47
2023/01/27 01:32:16;;;;;;;0.40;0.40;;;;;;;18.05;40.74;101913.84;5109897;28;20043;-47
2023/01/27 01:34:42;;;;;;;0.50;0.50;;;;;;;18.05;40.70;101920.19;5110569;28;20052;-45
2023/01/27 01:37:08;;;;;;;0.32;0.32;;;;;;;18.05;40.66;101919.38;5091859;28;20040;-45
2023/01/27 01:39:33;;;;;;;0.40;0.40;;;;;;;18.04;40.55;101920.41;5092047;28;20070;-46
2023/01/27 01:41:59;;;;;;;0.30;0.30;;;;;;;18.04;40.53;101921.25;5110457;28;20047;-45
2023/01/27 01:44:28;;;;;;;0.30;0.30;;;;;;;18.04;40.65;101918.50;5110351;28;20050;-45
2023/01/27 01:46:54;;;;;;;0.40;0.40;;;;;;;18.04;40.73;101926.78;5122213;27;20113;-45
2023/01/27 01:49:24;;;;;;;0.30;0.30;;;;;;;18.04;40.49;101926.78;5112386;28;20043;-46
2023/01/27 01:51:53;;;;;;;0.30;0.30;;;;;;;18.04;40.76;101924.00;5112365;28;20453;-45
2023/01/27 01:54:24;;;;;;;0.50;0.50;;;;;;;18.04;40.81;101921.25;5111764;28;20055;-45
2023/01/27 01:56:53;;;;;;;0.40;0.40;;;;;;;18.04;40.66;101926.78;5121261;27;20062;-46
2023/01/27 01:59:22;;;;;;;0.40;0.40;;;;;;;18.03;40.64;101927.84;5109912;28;20075;-45
2023/01/27 02:01:50;;;;;;;0.30;0.30;;;;;;;18.04;40.63;101926.78;5109601;28;20391;-47
2023/01/27 02:04:18;;;;;;;0.40;0.40;;;;;;;18.04;40.67;101931.44;5074841;28;20073;-46
2023/01/27 02:06:51;;;;;;;0.40;0.40;;;;;;;18.03;40.71;101930.63;5090706;28;20507;-45
2023/01/27 02:09:18;;;;;;;0.30;0.30;;;;;;;18.02;40.63;101931.72;5091383;28;20201;-45
2023/01/27 02:11:44;;;;;;;0.40;0.40;;;;;;;18.03;40.65;101933.38;5109859;28;20048;-46
2023/01/27 02:14:12;;;;;;;0.40;0.40;;;;;;;18.04;40.63;101931.44;5110076;28;20339;-46
2023/01/27 02:16:37;;;;;;;0.30;0.30;;;;;;;18.03;40.72;101930.63;5109746;28;20048;-45
2023/01/27 02:19:03;;;;;;;0.40;0.40;;;;;;;18.03;40.92;101927.84;5109751;28;20055;-47
2023/01/27 02:21:29;;;;;;;0.30;0.30;;;;;;;18.04;40.72;101935.03;5091357;28;20048;-45
2023/01/27 02:24:00;;;;;;;0.30;0.30;;;;;;;18.04;40.74;101931.44;5109526;28;20056;-46
2023/01/27 02:26:31;;;;;;;0.40;0.40;;;;;;;18.03;40.84;101935.28;5109267;28;20047;-45
2023/01/27 02:29:01;;;;;;;0.40;0.40;;;;;;;18.02;40.80;101931.72;5074607;28;20056;-47
2023/01/27 02:31:27;;;;;;;0.40;0.40;;;;;;;18.03;40.77;101935.28;5109125;28;20099;-45
2023/01/27 02:34:04;;;;;;;0.30;0.30;;;;;;;18.02;40.72;101925.38;5109751;28;20052;-46
2023/01/27 02:36:31;;;;;;;0.40;0.40;;;;;;;18.03;40.64;101935.28;5080613;28;20052;-45
2023/01/27 02:38:59;;;;;;;0.30;0.30;;;;;;;18.03;40.72;101941.63;5091165;28;20055;-45
2023/01/27 02:41:36;;;;;;;0.30;0.30;;;;;;;18.03;40.66;101938.06;5109347;28;20083;-45
2023/01/27 02:44:02;;;;;;;0.50;0.50;;;;;;;18.03;40.80;101949.06;5109293;28;20495;-45
2023/01/27 02:46:28;;;;;;;0.40;0.40;;;;;;;18.02;40.79;101939.16;5109412;28;20050;-46
2023/01/27 02:48:54;;;;;;;0.40;0.40;;;;;;;18.03;40.73;101943.56;5091135;28;20044;-46
2023/01/27 02:51:20;;;;;;;0.40;0.40;;;;;;;18.03;40.96;101940.81;5091183;28;20054;-46
2023/01/27 02:53:45;;;;;;;0.40;0.40;;;;;;;18.03;41.00;101952.66;5109143;28;20093;-46
2023/01/27 02:56:11;;;;;;;0.22;0.22;;;;;;;18.03;40.67;101951.84;5108521;28;20109;-45
2023/01/27 02:58:37;;;;;;;0.40;0.40;;;;;;;18.01;40.86;101957.59;5109462;28;20058;-45
2023/01/27 03:01:03;;;;;;;0.40;0.40;;;;;;;18.03;40.90;101960.94;5108894;28;20056;-45
2023/01/27 03:03:29;;;;;;;0.40;0.40;;;;;;;18.02;40.77;101958.44;5090828;28;20051;-46
2023/01/27 03:05:54;;;;;;;0.30;0.30;;;;;;;18.03;40.93;101965.63;5108983;28;20326;-46
2023/01/27 03:08:20;;;;;;;0.40;0.40;;;;;;;18.02;40.92;101966.72;5108508;28;20059;-45
2023/01/27 03:10:54;;;;;;;0.40;0.40;;;;;;;18.02;40.68;101966.72;5109318;28;20502;-45
2023/01/27 03:13:21;;;;;;;0.40;0.40;;;;;;;18.01;40.93;101971.38;5109208;28;20048;-47
2023/01/27 03:18:32;;;;;;;0.40;0.40;;;;;;;18.01;40.93;101967.81;5113696;28;20071;-45
2023/01/27 03:21:02;;;;;;;0.40;0.40;;;;;;;18.02;40.81;101972.22;5129678;28;20414;-45
2023/01/27 03:23:28;;;;;;;0.40;0.40;;;;;;;18.01;41.28;101974.16;5094094;28;20563;-46
2023/01/27 03:25:53;;;;;;;0.40;0.40;;;;;;;18.01;40.98;101979.66;5128749;28;20051;-47
2023/01/27 03:28:19;;;;;;;0.40;0.40;;;;;;;18.01;40.79;101979.66;5129063;28;20072;-46
2023/01/27 03:30:45;;;;;;;0.30;0.30;;;;;;;18.00;41.08;101974.38;5129149;28;20051;-46
2023/01/27 03:33:10;;;;;;;0.30;0.30;;;;;;;18.01;40.89;101973.31;5128679;28;20058;-46
2023/01/27 03:35:38;;;;;;;0.40;0.40;;;;;;;18.01;40.91;101976.06;5124718;27;20104;-46
2023/01/27 03:46:22;;;;;;;0.40;0.40;;;;;;;18.01;40.82;101973.31;5092976;28;20044;-47
2023/01/27 03:48:50;;;;;;;0.40;0.40;;;;;;;18.00;40.87;101964.22;5108443;28;20044;-46
2023/01/27 03:51:16;;;;;;;0.40;0.40;;;;;;;17.99;40.71;101973.53;5073536;28;20468;-45
2023/01/27 03:53:42;;;;;;;0.40;0.40;;;;;;;18.01;41.00;101987.94;5090251;28;20067;-46
2023/01/27 03:56:08;;;;;;;0.40;0.40;;;;;;;18.00;40.91;101979.88;5089551;28;20134;-46
2023/01/27 03:58:35;;;;;;;0.40;0.40;;;;;;;18.00;40.99;101975.25;5089978;28;20044;-46
2023/01/27 04:01:03;;;;;;;0.40;0.40;;;;;;;18.00;40.90;101975.25;5073079;28;20051;-45
2023/01/27 04:09:07;;;;;;;0.40;0.40;;;;;;;17.99;40.92;101979.06;5078870;28;20074;-45
2023/01/27 04:12:04;;;;;;;0.40;0.40;;;;;;;17.98;40.91;101982.91;5089870;28;20047;-47
2023/01/27 04:14:18;;;;;;;0.40;0.40;;;;;;;18.00;40.99;101980.75;5093045;28;20066;-47
2023/01/27 04:16:44;;;;;;;0.40;0.40;;;;;;;17.99;41.08;101987.31;5108251;28;20075;-46
2023/01/27 04:19:11;;;;;;;0.40;0.40;;;;;;;18.00;40.97;101986.25;5107866;28;20047;-47
2023/01/27 04:21:37;;;;;;;0.40;0.40;;;;;;;18.00;40.87;101985.41;5108069;28;20471;-46
2023/01/27 04:24:03;;;;;;;0.40;0.40;;;;;;;18.00;40.88;101982.63;5089588;28;20415;-45
2023/01/27 04:26:33;;;;;;;0.40;0.40;;;;;;;17.99;40.95;101987.31;5089425;28;20051;-46
2023/01/27 04:29:00;;;;;;;0.40;0.40;;;;;;;17.99;40.91;101984.56;5090881;28;20050;-45
2023/01/27 04:31:26;;;;;;;0.40;0.40;;;;;;;18.00;41.02;101993.66;5092936;28;20188;-45
2023/01/27 04:33:51;;;;;;;0.40;0.40;;;;;;;17.99;41.02;101987.31;5111429;28;20071;-46
2023/01/27 04:36:17;;;;;;;0.40;0.40;;;;;;;17.99;40.91;101989.25;5121153;28;20043;-47
2023/01/27 04:38:43;;;;;;;0.40;0.40;;;;;;;17.99;40.87;101995.59;5113158;28;20119;-46
2023/01/27 04:41:09;;;;;;;0.40;0.40;;;;;;;18.01;40.74;101995.38;5132046;28;20475;-45
2023/01/27 04:43:35;;;;;;;0.40;0.40;;;;;;;17.99;40.85;101998.34;5131778;28;20456;-45
2023/01/27 04:46:01;;;;;;;0.40;0.40;;;;;;;17.99;40.84;101984.56;5131758;28;20475;-45
2023/01/27 04:48:27;;;;;;;0.40;0.40;;;;;;;17.98;40.89;101993.94;5113068;28;20043;-45
2023/01/27 04:50:52;;;;;;;0.40;0.40;;;;;;;17.97;40.78;101997.78;5131978;28;20491;-45
2023/01/27 04:53:18;;;;;;;0.30;0.30;;;;;;;17.99;40.93;101998.34;5131694;28;20051;-45
2023/01/27 04:55:46;;;;;;;0.40;0.40;;;;;;;17.98;40.92;101998.59;5130997;28;20134;-45
2023/01/27 04:58:12;;;;;;;0.40;0.40;;;;;;;17.99;40.88;102000.28;5131661;28;20487;-47
2023/01/27 05:00:38;;;;;;;0.30;0.30;;;;;;;17.99;40.91;101994.75;5112980;28;20589;-45
2023/01/27 05:03:04;;;;;;;0.40;0.40;;;;;;;17.98;41.14;101993.94;5131283;28;20107;-52
2023/01/27 05:05:31;;;;;;;0.40;0.40;;;;;;;17.99;41.11;102003.03;5131621;27;20249;-46
2023/01/27 05:08:02;;;;;;;0.40;0.40;;;;;;;17.97;41.08;102003.28;5131248;28;20047;-45
2023/01/27 05:10:28;;;;;;;0.40;0.40;;;;;;;17.99;40.82;102000.28;5113024;28;20054;-45
2023/01/27 05:12:54;;;;;;;0.40;0.40;;;;;;;17.98;40.83;101999.44;5131374;28;20047;-46
2023/01/27 05:15:19;;;;;;;0.40;0.40;;;;;;;17.98;41.06;102004.94;5131544;28;20483;-47
2023/01/27 05:17:45;;;;;;;0.40;0.40;;;;;;;17.98;41.01;102004.94;5112447;28;20432;-46
2023/01/27 05:20:11;;;;;;;0.40;0.40;;;;;;;17.98;40.98;102004.94;5131348;28;20058;-47
2023/01/27 05:22:36;;;;;;;0.40;0.40;;;;;;;17.99;40.99;102011.28;5131223;28;20095;-45
2023/01/27 05:25:02;;;;;;;0.40;0.40;;;;;;;17.99;40.95;102014.06;5128053;28;20052;-45
2023/01/27 05:27:28;;;;;;;0.40;0.40;;;;;;;17.97;40.90;102014.31;5098241;28;20063;-45
2023/01/27 05:29:54;;;;;;;0.50;0.50;;;;;;;17.98;41.14;102010.47;5130887;28;20051;-45
2023/01/27 05:32:19;;;;;;;0.40;0.40;;;;;;;17.97;41.05;102019.81;5126364;28;20154;-45
2023/01/27 05:34:45;;;;;;;0.32;0.32;;;;;;;17.97;41.14;102014.31;5115383;28;20477;-47
2023/01/27 05:37:11;;;;;;;0.40;0.40;;;;;;;17.98;40.93;102015.16;5119329;27;20048;-47
2023/01/27 05:39:37;;;;;;;0.30;0.30;;;;;;;17.97;40.93;102017.06;5110448;28;20067;-46
2023/01/27 05:42:02;;;;;;;0.40;0.40;;;;;;;17.98;41.07;102017.91;5110284;28;20080;-45
2023/01/27 05:44:28;;;;;;;0.40;0.40;;;;;;;17.98;40.88;102023.41;5114348;28;20061;-48
2023/01/27 05:46:54;;;;;;;0.40;0.40;;;;;;;17.98;40.98;102027.00;5130914;28;20051;-45
2023/01/27 05:49:20;;;;;;;0.40;0.40;;;;;;;17.97;40.98;102024.50;5130637;27;20422;-46
2023/01/27 05:51:45;;;;;;;0.40;0.40;;;;;;;17.98;40.92;102018.72;5131002;28;20213;-46
2023/01/27 05:54:11;;;;;;;0.40;0.40;;;;;;;17.98;40.97;102031.69;5130447;28;20043;-47
2023/01/27 05:56:37;;;;;;;0.40;0.40;;;;;;;17.98;40.93;102034.44;5130322;28;20043;-45
2023/01/27 05:59:02;;;;;;;0.40;0.40;;;;;;;17.98;41.08;102028.91;5130497;28;20117;-45
2023/01/27 06:01:30;;;;;;;0.40;0.40;;;;;;;17.98;41.11;102032.50;5130527;28;20119;-45
2023/01/27 06:03:56;;;;;;;0.30;0.30;;;;;;;17.98;40.98;102024.25;5106812;28;20112;-46
2023/01/27 06:06:24;;;;;;;0.40;0.40;;;;;;;17.98;41.08;102027.00;5112177;28;20047;-46
2023/01/27 06:08:50;;;;;;;0.30;0.30;;;;;;;17.97;40.92;102022.56;5111457;28;20043;-45
2023/01/27 06:11:18;;;;;;;0.40;0.40;;;;;;;17.97;40.99;102030.84;5130372;28;20371;-45
2023/01/27 06:13:44;;;;;;;0.30;0.30;;;;;;;17.97;41.14;102027.25;5104202;28;20108;-45
2023/01/27 06:16:12;;;;;;;0.40;0.40;;;;;;;17.98;41.07;102031.69;5097980;28;20355;-46
2023/01/27 06:18:38;;;;;;;0.30;0.30;;;;;;;17.97;41.16;102022.56;5105547;28;20231;-45
2023/01/27 06:21:07;;;;;;;0.40;0.40;;;;;;;17.97;40.89;102027.25;5109933;27;20074;-45
2023/01/27 06:23:33;;;;;;;0.40;0.40;;;;;;;17.96;41.16;102034.69;5104893;28;20108;-44
2023/01/27 06:26:02;;;;;;;0.40;0.40;;;;;;;17.97;41.02;102041.03;5107026;28;20051;-46
2023/01/27 06:28:28;;;;;;;0.70;0.70;;;;;;;17.96;41.12;102031.94;5121326;28;20293;-45
2023/01/27 06:31:02;;;;;;;0.30;0.30;;;;;;;17.96;41.14;102031.06;5085130;28;20051;-45
2023/01/27 06:33:28;;;;;;;0.30;0.30;;;;;;;18.04;41.49;102044.47;5102758;28;20055;-51
2023/01/27 06:36:00;;;;;;;0.30;0.30;;;;;;;18.05;41.51;102037.91;5124030;28;20049;-47
2023/01/27 06:38:25;;;;;;;0.35;0.35;;;;;;;18.04;41.68;102047.22;5101514;27;20039;-46
2023/01/27 06:40:51;;;;;;;0.40;0.40;;;;;;;18.03;41.67;102045.56;5120308;27;20055;-45
2023/01/27 06:43:17;;;;;;;0.40;0.40;;;;;;;18.10;41.76;102040.75;5129058;27;20445;-45
2023/01/27 06:45:42;;;;;;;0.40;0.40;;;;;;;18.06;41.73;102056.09;5124496;27;20046;-47
2023/01/27 06:48:08;;;;;;;0.40;0.40;;;;;;;18.05;41.87;102052.50;5118863;28;20047;-45
2023/01/27 06:50:35;;;;;;;0.30;0.30;;;;;;;18.05;41.77;102054.44;5119313;28;20448;-45
2023/01/27 06:53:03;;;;;;;0.40;0.40;;;;;;;18.05;41.88;102057.19;5096864;28;20062;-47
2023/01/27 06:55:29;;;;;;;0.63;0.63;;;;;;;18.04;41.88;102055.50;5113634;28;20131;-45
2023/01/27 06:57:54;;;;;;;0.30;0.30;;;;;;;18.04;41.76;102072.03;5062435;27;21776;-48
2023/01/27 07:00:20;;;;;;;0.30;0.30;;;;;;;18.05;41.63;102062.69;5080527;28;20460;-46
2023/01/27 07:02:46;;;;;;;0.40;0.40;;;;;;;18.06;41.65;102064.38;5100938;28;20054;-46
2023/01/27 07:05:12;;;;;;;0.40;0.40;;;;;;;18.06;41.60;102067.13;5104159;27;20070;-45
2023/01/27 07:07:38;;;;;;;0.40;0.40;;;;;;;18.06;41.76;102072.63;5109894;28;20051;-46
2023/01/27 07:10:05;;;;;;;0.40;0.40;;;;;;;18.08;41.81;102075.13;5116533;27;20510;-46
2023/01/27 07:12:30;;;;;;;0.40;0.40;;;;;;;18.07;41.75;102079.81;5095651;28;20051;-46
2023/01/27 07:14:56;;;;;;;0.30;0.30;;;;;;;18.08;41.66;102073.22;5119653;27;20051;-45
2023/01/27 07:17:22;;;;;;;0.30;0.30;;;;;;;18.07;41.44;102071.53;5119163;28;20517;-47
2023/01/27 07:19:47;;;;;;;0.40;0.40;;;;;;;18.07;41.51;102063.28;5111563;27;20047;-47
2023/01/27 07:22:13;;;;;;;0.40;0.40;;;;;;;18.09;41.52;102077.66;5108683;27;20039;-46
2023/01/27 07:24:38;;;;;;;0.40;0.40;;;;;;;18.09;41.49;102077.66;5116075;28;20174;-46
2023/01/27 07:27:04;;;;;;;0.40;0.40;;;;;;;18.10;41.76;102078.50;5115479;27;20057;-46
2023/01/27 07:29:30;;;;;;;0.40;0.40;;;;;;;18.10;41.48;102081.25;5114724;27;20498;-46
2023/01/27 07:31:55;;;;;;;0.40;0.40;;;;;;;18.10;41.44;102084.84;5113142;28;20056;-45
2023/01/27 07:34:21;;;;;;;0.32;0.32;;;;;;;18.11;41.62;102085.69;5112880;27;20054;-46
2023/01/27 07:36:47;;;;;;;0.30;0.30;;;;;;;18.11;41.50;102085.69;5114087;28;22238;-47
2023/01/27 07:39:13;;;;;;;0.40;0.40;;;;;;;18.11;41.56;102080.16;5120376;28;20043;-45
2023/01/27 07:41:38;;;;;;;0.40;0.40;;;;;;;18.11;41.37;102083.75;5117073;28;20436;-45
2023/01/27 07:44:04;;;;;;;0.40;0.40;;;;;;;18.14;41.34;102082.44;5108069;27;20074;-47
2023/01/27 07:46:29;;;;;;;0.40;0.40;;;;;;;18.23;42.10;102095.59;5101171;27;20411;-46
2023/01/27 07:48:55;;;;;;;0.40;0.40;;;;;;;18.25;43.70;102089.81;5112811;27;20035;-45
2023/01/27 07:51:21;;;;;;;0.40;0.40;;;;;;;18.21;42.69;102088.63;5115769;27;20039;-45
2023/01/27 07:53:46;;;;;;;0.40;0.40;;;;;;;18.27;43.02;102094.00;5103116;27;20562;-45
2023/01/27 07:56:12;;;;;;;0.40;0.40;;;;;;;18.28;42.81;102101.19;5105820;28;20656;-45
2023/01/27 07:58:38;;;;;;;0.30;0.30;;;;;;;18.26;42.83;102097.84;5101569;27;20043;-47
2023/01/27 08:01:06;;;;;;;0.40;0.40;;;;;;;18.25;42.93;102095.31;5097010;27;20147;-46
2023/01/27 08:03:31;;;;;;;0.40;0.40;;;;;;;18.23;42.77;102097.50;5100290;27;20468;-46
2023/01/27 08:05:57;;;;;;;0.40;0.40;;;;;;;18.23;42.98;102109.38;5102503;27;20306;-47
2023/01/27 08:08:23;;;;;;;0.35;0.35;;;;;;;18.24;43.17;102101.94;5097185;27;20123;-46
2023/01/27 08:10:50;;;;;;;0.40;0.40;;;;;;;18.23;43.08;102103.84;5089958;27;20048;-45
2023/01/27 08:13:16;;;;;;;0.32;0.32;;;;;;;18.23;43.36;102103.84;5102261;27;20067;-49
2023/01/27 08:15:42;;;;;;;0.40;0.40;;;;;;;18.30;43.01;102107.28;5099530;27;20058;-45
2023/01/27 08:18:08;;;;;;;0.40;0.40;;;;;;;18.33;42.39;102105.13;5106292;27;20040;-49
2023/01/27 08:20:34;;;;;;;0.40;0.40;;;;;;;18.37;42.88;102109.06;5101698;28;20044;-52
2023/01/27 08:22:59;;;;;;;0.40;0.40;;;;;;;18.35;42.26;102112.09;5097855;28;21244;-54
2023/01/27 08:25:25;;;;;;;0.40;0.40;;;;;;;18.36;42.93;102110.16;5115582;27;20047;-54
2023/01/27 08:27:52;;;;;;;0.40;0.40;;;;;;;18.33;43.36;102105.97;5113135;28;20928;-53
2023/01/27 08:30:18;;;;;;;0.30;0.30;;;;;;;18.37;43.40;102092.53;5075098;28;20119;-54
2023/01/27 08:32:44;;;;;;;0.30;0.30;;;;;;;18.39;43.77;102098.63;5093684;28;20055;-54
2023/01/27 08:35:09;;;;;;;0.30;0.30;;;;;;;18.43;43.43;102099.78;5095363;27;20623;-45
2023/01/27 08:37:35;;;;;;;0.30;0.30;;;;;;;18.40;43.66;102097.56;5109733;27;20681;-46
2023/01/27 08:40:01;;;;;;;0.30;0.30;;;;;;;18.37;43.63;102101.63;5108116;27;20043;-47
2023/01/27 08:42:26;;;;;;;0.30;0.30;;;;;;;18.35;43.93;102102.94;5108244;27;21168;-46
2023/01/27 08:44:52;;;;;;;0.38;0.38;;;;;;;18.37;43.54;102098.03;5111498;28;20043;-46
2023/01/27 08:47:18;;;;;;;0.30;0.30;;;;;;;18.35;43.72;102105.72;5113046;28;20051;-46
2023/01/27 08:49:44;;;;;;;0.30;0.30;;;;;;;18.35;43.75;102103.81;5116475;28;20039;-45
2023/01/27 08:52:10;;;;;;;0.30;0.30;;;;;;;18.42;43.57;102101.72;5125092;27;20058;-48
2023/01/27 08:54:36;;;;;;;0.30;0.30;;;;;;;18.55;43.51;102095.06;5119008;28;20043;-57
2023/01/27 08:57:01;;;;;;;0.40;0.40;;;;;;;18.48;43.02;102097.13;5106998;28;20077;-47
2023/01/27 08:59:27;;;;;;;0.40;0.40;;;;;;;18.43;43.79;102099.78;5101397;28;20062;-45
2023/01/27 09:01:53;;;;;;;0.30;0.30;;;;;;;18.40;43.67;102103.91;5105805;27;21445;-50
2023/01/27 09:04:20;;;;;;;0.40;0.40;;;;;;;18.39;43.94;102106.88;5104720;27;20108;-47
2023/01/27 09:06:47;;;;;;;0.30;0.30;;;;;;;18.38;43.73;102108.81;5080546;28;20047;-48
2023/01/27 09:09:12;;;;;;;0.63;0.63;;;;;;;18.39;43.71;102104.13;5105718;28;20074;-52
2023/01/27 09:11:40;;;;;;;0.40;0.40;;;;;;;18.39;43.49;102113.25;5101752;27;20108;-50
2023/01/27 09:14:06;;;;;;;0.38;0.38;;;;;;;18.40;43.55;102123.22;5071462;27;20047;-49
2023/01/27 09:16:31;;;;;;;0.30;0.30;;;;;;;18.40;43.59;102120.44;5105346;27;20669;-52
2023/01/27 09:18:57;;;;;;;0.30;0.30;;;;;;;18.40;43.65;102120.44;5109703;27;20046;-49
2023/01/27 09:21:24;;;;;;;0.40;0.40;;;;;;;18.40;43.77;102128.72;5112430;28;20572;-49
2023/01/27 09:23:50;;;;;;;0.40;0.40;;;;;;;18.38;43.56;102130.88;5106795;27;20540;-47
2023/01/27 09:26:16;;;;;;;0.30;0.30;;;;;;;18.39;43.59;102129.78;5091142;28;20067;-46
2023/01/27 09:28:41;;;;;;;0.30;0.30;;;;;;;18.39;43.64;102138.06;5112554;28;20112;-46
2023/01/27 09:31:08;;;;;;;0.30;0.30;;;;;;;18.41;42.95;102141.44;5103485;27;20404;-47
2023/01/27 09:33:34;;;;;;;0.40;0.40;;;;;;;18.42;41.67;102147.78;5099243;28;20044;-50
2023/01/27 09:36:10;;;;;;;0.30;0.30;;;;;;;17.61;39.05;102144.09;5072794;27;20047;-51
2023/01/27 09:38:41;;;;;;;0.30;0.30;;;;;;;17.71;40.10;102147.09;5066566;28;20043;-45
2023/01/27 09:41:46;;;;;;;0.30;0.30;;;;;;;18.06;41.42;102144.31;5088023;28;20085;-47
2023/01/27 09:44:46;;;;;;;0.40;0.40;;;;;;;18.22;42.03;102142.69;5084736;27;20075;-48
2023/01/27 09:47:39;;;;;;;0.30;0.30;;;;;;;18.28;42.14;102148.06;5112604;28;20147;-48
2023/01/27 09:50:45;;;;;;;0.40;0.40;;;;;;;18.32;42.19;102144.84;5124994;28;20102;-47
2023/01/27 09:53:50;;;;;;;0.30;0.30;;;;;;;18.34;42.15;102145.41;5104585;27;20062;-47
2023/01/27 09:56:40;;;;;;;0.30;0.30;;;;;;;18.29;41.63;102157.19;5100862;27;20082;-47
2023/01/27 09:59:20;;;;;;;0.30;0.30;;;;;;;18.34;41.90;102145.41;5096933;27;20560;-50
2023/01/27 10:01:56;;;;;;;0.30;0.30;;;;;;;18.35;41.85;102152.59;5119471;27;20039;-46
2023/01/27 10:04:38;;;;;;;0.30;0.30;;;;;;;18.39;41.81;102151.03;5083417;28;20471;-51
2023/01/27 10:07:13;;;;;;;0.40;0.40;;;;;;;18.44;41.93;102142.88;5099673;28;20197;-49
2023/01/27 10:09:54;;;;;;;0.30;0.30;;;;;;;18.42;42.01;102148.59;5113004;27;20494;-46
2023/01/27 10:12:51;;;;;;;0.30;0.30;;;;;;;18.41;41.75;102144.19;5115109;27;20047;-52
2023/01/27 10:21:37;;;;;;;0.40;0.40;;;;;;;18.42;41.58;102142.25;5173563;27;20123;-50
2023/01/27 10:24:19;;;;;;;0.30;0.30;;;;;;;18.43;42.33;102150.28;5130407;27;20924;-49
2023/01/27 10:26:50;;;;;;;0.30;0.30;;;;;;;18.17;40.47;102150.84;5133189;27;20146;-49
2023/01/27 10:29:24;;;;;;;0.30;0.30;;;;;;;18.32;41.78;102150.34;5128834;27;20089;-46
2023/01/27 10:31:56;;;;;;;0.30;0.30;;;;;;;18.39;41.59;102143.56;5125265;27;20062;-45
2023/01/27 10:34:28;;;;;;;0.30;0.30;;;;;;;18.40;41.87;102153.56;5100149;27;20077;-45
2023/01/27 10:37:22;;;;;;;0.30;0.30;;;;;;;18.41;42.11;102146.09;5099810;27;20057;-47
2023/01/27 10:39:59;;;;;;;0.30;0.30;;;;;;;18.43;42.08;102155.78;5098539;27;20047;-49
2023/01/27 10:42:46;;;;;;;0.30;0.30;;;;;;;18.44;42.09;102156.66;5110775;27;20603;-45
2023/01/27 10:45:26;;;;;;;0.30;0.30;;;;;;;18.42;42.14;102154.13;5112661;27;20047;-46
2023/01/27 10:48:28;;;;;;;0.30;0.30;;;;;;;18.44;42.19;102151.16;5120508;27;20047;-45
2023/01/27 10:50:59;;;;;;;0.30;0.30;;;;;;;18.42;42.13;102143.09;5107913;27;20043;-45
2023/01/27 10:53:36;;;;;;;0.30;0.30;;;;;;;18.43;42.13;102149.44;5109672;27;20099;-46
2023/01/27 10:56:07;;;;;;;0.30;0.30;;;;;;;18.44;42.22;102151.16;5109508;27;20200;-45
2023/01/27 10:59:05;;;;;;;0.30;0.30;;;;;;;18.45;42.10;102144.53;5115864;27;20078;-47
2023/01/27 11:01:35;;;;;;;0.30;0.30;;;;;;;18.44;41.93;102143.69;5119416;27;20325;-47
2023/01/27 11:04:08;;;;;;;0.30;0.30;;;;;;;18.45;42.16;102137.09;5107565;27;20040;-48
2023/01/27 11:06:37;;;;;;;0.30;0.30;;;;;;;18.44;41.91;102138.19;5133808;27;20122;-48
2023/01/27 11:09:23;;;;;;;0.30;0.30;;;;;;;18.45;41.98;102144.53;5132862;27;20077;-49
2023/01/27 11:11:50;;;;;;;0.30;0.30;;;;;;;18.36;40.61;102140.50;5127928;27;20219;-46
2023/01/27 11:14:26;;;;;;;0.30;0.30;;;;;;;18.44;41.83;102129.91;5128945;27;20563;-46
2023/01/27 11:17:00;;;;;;;0.30;0.30;;;;;;;18.45;41.91;102134.34;5112672;27;20039;-48
2023/01/27 11:19:49;;;;;;;0.30;0.30;;;;;;;18.46;41.75;102136.00;5126689;27;20405;-47
2023/01/27 11:22:21;;;;;;;0.30;0.30;;;;;;;18.43;40.99;102125.44;5109582;27;20550;-45
2023/01/27 11:24:52;;;;;;;0.30;0.30;;;;;;;18.48;41.79;102122.81;5107821;27;20067;-45
2023/01/27 11:27:58;;;;;;;0.30;0.30;;;;;;;18.49;41.55;102126.41;5129196;27;20047;-46
2023/01/27 11:30:31;;;;;;;0.40;0.40;;;;;;;18.49;42.13;102126.41;5096034;27;20050;-44
2023/01/27 11:33:16;;;;;;;0.30;0.30;;;;;;;18.40;41.36;102136.16;5110250;28;20502;-46
2023/01/27 11:35:42;;;;;;;0.35;0.35;;;;;;;18.46;42.08;102135.16;5098929;28;20044;-44
2023/01/27 11:38:13;;;;;;;0.30;0.30;;;;;;;18.51;43.73;102143.53;5114868;27;20039;-46
2023/01/27 11:40:41;;;;;;;0.40;0.40;;;;;;;18.55;44.50;102145.56;5101526;27;20047;-47
2023/01/27 11:43:14;;;;;;;0.32;0.32;;;;;;;18.58;44.71;102137.88;5092532;27;20043;-50
2023/01/27 11:45:40;;;;;;;0.30;0.30;;;;;;;18.57;45.00;102142.56;5083644;28;20215;-45
2023/01/27 11:48:10;;;;;;;0.40;0.40;;;;;;;18.58;45.23;102135.13;5098576;27;21008;-47
2023/01/27 11:50:36;;;;;;;0.35;0.35;;;;;;;18.58;43.04;102138.72;5101081;27;20086;-45
2023/01/27 11:53:12;;;;;;;0.20;0.20;;;;;;;18.61;44.11;102138.22;5108088;27;20043;-47
2023/01/27 11:55:41;;;;;;;0.30;0.30;;;;;;;18.61;44.13;102140.13;5109639;28;20054;-46
2023/01/27 11:58:24;;;;;;;0.38;0.38;;;;;;;18.60;44.22;102133.78;5077455;28;20556;-45
2023/01/27 12:00:55;;;;;;;0.30;0.30;;;;;;;18.58;44.59;102135.13;5107895;27;20085;-46
2023/01/27 12:03:41;;;;;;;0.30;0.30;;;;;;;18.60;44.21;102132.94;5091856;28;21413;-46